Time;durP1;ratioP1;P1;durP2;ratioP2;P2;SDS_P1;SDS_P2;PMS_P1;PMS_P2;Temp;Humidity;BMP_temperature;BMP_pressure;BME280_temperature;BME280_humidity;BME280_pressure;Samples;Min_cycle;Max_cycle;Signal;HPM_P1;HPM_P2
2023/11/01 00:00:05;;;;;;;44.42;17.02;;;;;;;;;;5046347;28;20053;-60
2023/11/01 00:02:32;;;;;;;35.75;16.17;;;;;;;;;;5040881;28;20421;-60
2023/11/01 00:04:58;;;;;;;39.47;17.23;;;;;;;;;;5047270;28;20615;-60
2023/11/01 00:07:24;;;;;;;45.20;18.83;;;;;;;;;;5043853;28;20142;-60
2023/11/01 00:09:50;;;;;;;41.53;17.95;;;;;;;;;;5040770;28;20064;-60
2023/11/01 00:12:17;;;;;;;39.83;19.67;;;;;;;;;;5042272;28;20041;-60
2023/11/01 00:14:43;;;;;;;40.28;18.45;;;;;;;;;;5045564;28;20048;-60
2023/11/01 00:17:09;;;;;;;51.90;20.63;;;;;;;;;;5044964;28;20049;-60
2023/11/01 00:19:35;;;;;;;45.03;19.05;;;;;;;;;;5045845;28;20041;-60
2023/11/01 00:22:02;;;;;;;42.97;18.42;;;;;;;;;;5045404;28;20033;-60
2023/11/01 00:24:28;;;;;;;47.67;19.52;;;;;;;;;;5043779;28;20478;-60
2023/11/01 00:26:54;;;;;;;48.80;20.42;;;;;;;;;;5045086;28;20397;-60
2023/11/01 00:29:20;;;;;;;50.25;19.48;;;;;;;;;;5044747;28;20136;-60
2023/11/01 00:31:46;;;;;;;38.80;17.55;;;;;;;;;;5044834;28;20049;-60
2023/11/01 00:34:13;;;;;;;44.47;19.73;;;;;;;;;;5046383;28;20045;-60
2023/11/01 00:36:39;;;;;;;51.60;20.52;;;;;;;;;;5044797;28;20059;-60
2023/11/01 00:39:05;;;;;;;48.20;20.13;;;;;;;;;;5051570;28;20528;-60
2023/11/01 00:41:31;;;;;;;45.38;19.23;;;;;;;;;;5046387;28;20056;-60
2023/11/01 00:43:57;;;;;;;46.88;20.15;;;;;;;;;;5043002;28;20186;-60
2023/11/01 00:46:23;;;;;;;51.10;20.27;;;;;;;;;;5044070;28;20342;-60
2023/11/01 00:48:50;;;;;;;53.63;20.63;;;;;;;;;;5045179;28;20036;-60
2023/11/01 00:51:16;;;;;;;47.50;20.00;;;;;;;;;;5044429;28;20178;-60
2023/11/01 00:53:42;;;;;;;50.45;20.83;;;;;;;;;;5044071;28;20643;-60
2023/11/01 00:56:08;;;;;;;53.55;21.95;;;;;;;;;;5044369;28;20047;-60
2023/11/01 00:58:35;;;;;;;50.25;19.83;;;;;;;;;;5044416;28;20053;-60
2023/11/01 01:01:02;;;;;;;54.55;21.73;;;;;;;;;;5047780;28;20079;-60
2023/11/01 01:03:28;;;;;;;58.72;22.65;;;;;;;;;;5043844;28;20052;-60
2023/11/01 01:05:54;;;;;;;51.20;21.90;;;;;;;;;;5042668;28;20044;-60
2023/11/01 01:08:20;;;;;;;63.78;23.45;;;;;;;;;;5047050;28;20045;-60
2023/11/01 01:10:47;;;;;;;66.18;25.17;;;;;;;;;;5048688;28;20513;-60
2023/11/01 01:13:13;;;;;;;74.18;26.58;;;;;;;;;;5048379;28;20477;-60
2023/11/01 01:15:39;;;;;;;77.78;25.80;;;;;;;;;;5044134;28;20384;-60
2023/11/01 01:18:06;;;;;;;74.68;26.60;;;;;;;;;;5030352;28;20048;-60
2023/11/01 01:20:32;;;;;;;68.13;26.13;;;;;;;;;;5048347;28;20049;-60
2023/11/01 01:22:58;;;;;;;76.03;26.52;;;;;;;;;;5046961;28;20045;-60
2023/11/01 01:25:24;;;;;;;86.03;28.02;;;;;;;;;;5048546;28;20040;-60
2023/11/01 01:27:50;;;;;;;69.70;26.55;;;;;;;;;;5046365;28;20488;-60
2023/11/01 01:30:17;;;;;;;70.85;25.85;;;;;;;;;;5043444;28;20125;-60
2023/11/01 01:32:43;;;;;;;65.57;25.95;;;;;;;;;;5026765;28;20454;-60
2023/11/01 01:35:10;;;;;;;67.50;26.98;;;;;;;;;;5042943;28;20393;-60
2023/11/01 01:37:37;;;;;;;55.53;22.83;;;;;;;;;;5045470;28;20059;-60
2023/11/01 01:40:03;;;;;;;62.35;24.35;;;;;;;;;;5044969;28;20041;-60
2023/11/01 01:42:29;;;;;;;64.60;25.05;;;;;;;;;;5043656;28;20082;-60
2023/11/01 01:44:55;;;;;;;67.30;24.27;;;;;;;;;;5042924;28;20037;-60
2023/11/01 01:47:22;;;;;;;55.72;23.25;;;;;;;;;;5043092;28;20057;-60
2023/11/01 01:49:48;;;;;;;60.22;22.90;;;;;;;;;;5042737;28;20045;-60
2023/11/01 01:52:14;;;;;;;64.72;23.50;;;;;;;;;;5044756;28;20041;-60
2023/11/01 01:54:40;;;;;;;61.72;23.65;;;;;;;;;;5042693;28;20114;-60
2023/11/01 01:57:07;;;;;;;56.28;23.38;;;;;;;;;;5042926;28;20377;-60
2023/11/01 01:59:33;;;;;;;55.85;23.13;;;;;;;;;;5046591;28;20094;-60
2023/11/01 02:02:00;;;;;;;55.28;22.75;;;;;;;;;;5044600;28;20064;-60
2023/11/01 02:04:26;;;;;;;59.95;23.42;;;;;;;;;;5044405;28;20080;-60
2023/11/01 02:06:52;;;;;;;58.67;23.85;;;;;;;;;;5044420;28;20052;-60
2023/11/01 02:09:19;;;;;;;56.72;21.80;;;;;;;;;;5045683;28;20510;-60
2023/11/01 02:11:45;;;;;;;53.58;23.77;;;;;;;;;;5044566;28;20045;-60
2023/11/01 02:14:12;;;;;;;54.30;22.80;;;;;;;;;;5043976;28;20438;-60
2023/11/01 02:16:39;;;;;;;59.25;23.50;;;;;;;;;;5044374;28;20048;-60
2023/11/01 02:19:08;;;;;;;55.05;22.27;;;;;;;;;;5043581;28;20426;-60
2023/11/01 02:21:35;;;;;;;50.97;21.42;;;;;;;;;;5043682;28;20522;-60
2023/11/01 02:24:01;;;;;;;53.88;23.10;;;;;;;;;;5041617;28;20048;-60
2023/11/01 02:26:30;;;;;;;51.10;22.05;;;;;;;;;;5043405;28;20100;-60
2023/11/01 02:28:56;;;;;;;52.08;21.95;;;;;;;;;;5041606;28;20057;-60
2023/11/01 02:31:22;;;;;;;52.60;21.30;;;;;;;;;;5042570;28;20194;-60
2023/11/01 02:33:48;;;;;;;56.58;22.02;;;;;;;;;;5042446;28;20846;-60
2023/11/01 02:36:15;;;;;;;43.20;20.48;;;;;;;;;;5043048;28;20049;-60
2023/11/01 02:38:41;;;;;;;47.08;20.98;;;;;;;;;;5042542;28;20126;-60
2023/11/01 02:41:07;;;;;;;47.42;21.02;;;;;;;;;;5042962;28;20041;-60
2023/11/01 02:43:33;;;;;;;49.10;22.00;;;;;;;;;;5042606;28;20172;-60
2023/11/01 02:45:59;;;;;;;46.08;21.98;;;;;;;;;;5042600;28;20044;-60
2023/11/01 02:48:26;;;;;;;46.70;21.98;;;;;;;;;;5043319;28;20059;-60
2023/11/01 02:50:53;;;;;;;43.90;19.85;;;;;;;;;;5043697;28;20041;-60
2023/11/01 02:53:19;;;;;;;45.95;20.75;;;;;;;;;;5044636;28;20370;-60
2023/11/01 02:55:45;;;;;;;46.10;20.80;;;;;;;;;;5042627;28;20045;-60
2023/11/01 02:58:11;;;;;;;47.08;21.35;;;;;;;;;;5041766;28;20068;-60
2023/11/01 03:00:37;;;;;;;49.95;21.63;;;;;;;;;;5042656;28;20797;-60
2023/11/01 03:03:04;;;;;;;46.03;20.88;;;;;;;;;;5042575;28;20040;-60
2023/11/01 03:05:30;;;;;;;47.40;20.25;;;;;;;;;;5043021;28;20127;-60
2023/11/01 03:07:56;;;;;;;46.20;21.02;;;;;;;;;;5048494;28;20114;-60
2023/11/01 03:10:22;;;;;;;46.70;21.33;;;;;;;;;;5042286;28;20434;-60
2023/11/01 03:12:48;;;;;;;43.55;20.23;;;;;;;;;;5045619;28;20071;-60
2023/11/01 03:15:15;;;;;;;45.78;20.02;;;;;;;;;;5052475;28;20071;-60
2023/11/01 03:17:42;;;;;;;49.78;21.42;;;;;;;;;;5042477;28;20044;-60
2023/11/01 03:20:08;;;;;;;41.60;21.08;;;;;;;;;;5040592;28;20484;-60
2023/11/01 03:22:35;;;;;;;50.35;23.30;;;;;;;;;;5041334;28;20055;-60
2023/11/01 03:25:01;;;;;;;47.00;20.88;;;;;;;;;;5044194;28;20278;-60
2023/11/01 03:27:27;;;;;;;49.75;20.98;;;;;;;;;;5042314;28;20134;-60
2023/11/01 03:29:54;;;;;;;46.38;21.52;;;;;;;;;;5056895;28;20053;-60
2023/11/01 03:32:22;;;;;;;57.05;22.42;;;;;;;;;;5059697;28;20525;-60
2023/11/01 03:34:48;;;;;;;48.85;21.80;;;;;;;;;;5056617;28;20047;-60
2023/11/01 03:37:14;;;;;;;50.15;21.17;;;;;;;;;;5043796;28;20061;-60
2023/11/01 03:39:40;;;;;;;57.30;24.05;;;;;;;;;;5061189;28;20175;-60
2023/11/01 03:42:07;;;;;;;57.33;23.10;;;;;;;;;;5048938;28;20037;-60
2023/11/01 03:44:33;;;;;;;47.95;22.13;;;;;;;;;;5049542;28;20167;-60
2023/11/01 03:47:00;;;;;;;52.17;22.65;;;;;;;;;;5054751;28;20503;-60
2023/11/01 03:49:29;;;;;;;49.42;22.08;;;;;;;;;;5052096;28;20044;-60
2023/11/01 03:51:56;;;;;;;56.33;22.67;;;;;;;;;;5047202;28;20515;-60
2023/11/01 03:54:22;;;;;;;52.80;22.77;;;;;;;;;;5040946;28;20668;-60
2023/11/01 03:56:49;;;;;;;51.50;22.70;;;;;;;;;;5040682;28;20059;-60
2023/11/01 03:59:15;;;;;;;54.05;22.83;;;;;;;;;;5043207;28;20047;-60
2023/11/01 04:01:41;;;;;;;59.05;24.20;;;;;;;;;;5042064;28;20056;-60
2023/11/01 04:04:07;;;;;;;55.78;22.65;;;;;;;;;;5041527;28;20341;-60
2023/11/01 04:06:33;;;;;;;58.10;23.50;;;;;;;;;;5043257;28;20076;-60
2023/11/01 04:08:59;;;;;;;57.15;23.38;;;;;;;;;;5041601;28;20041;-60
2023/11/01 04:11:26;;;;;;;49.88;23.08;;;;;;;;;;5043942;28;20041;-60
2023/11/01 04:13:52;;;;;;;55.22;23.10;;;;;;;;;;5043116;28;20111;-60
2023/11/01 04:16:18;;;;;;;57.25;23.80;;;;;;;;;;5041142;28;20152;-60
2023/11/01 04:18:44;;;;;;;53.22;22.73;;;;;;;;;;5044209;28;20116;-60
2023/11/01 04:21:10;;;;;;;59.97;22.77;;;;;;;;;;5041798;28;20045;-60
2023/11/01 04:23:37;;;;;;;53.15;22.70;;;;;;;;;;5040907;28;20130;-60
2023/11/01 04:26:03;;;;;;;51.47;22.92;;;;;;;;;;5042098;28;20060;-60
2023/11/01 04:28:29;;;;;;;72.55;26.13;;;;;;;;;;5042825;28;20168;-60
2023/11/01 04:30:55;;;;;;;52.63;22.85;;;;;;;;;;5040384;28;20047;-60
2023/11/01 04:33:22;;;;;;;56.92;23.80;;;;;;;;;;5041217;28;20033;-60
2023/11/01 04:35:48;;;;;;;61.08;24.63;;;;;;;;;;5042086;28;20055;-60
2023/11/01 04:38:14;;;;;;;64.53;25.30;;;;;;;;;;5041044;28;20059;-60
2023/11/01 04:40:40;;;;;;;58.38;23.90;;;;;;;;;;5043767;28;20053;-60
2023/11/01 04:43:06;;;;;;;66.10;25.50;;;;;;;;;;5041054;28;20119;-60
2023/11/01 04:45:33;;;;;;;71.10;27.17;;;;;;;;;;5042425;28;20040;-61
2023/11/01 04:47:59;;;;;;;68.78;27.20;;;;;;;;;;5040538;28;20155;-60
2023/11/01 04:50:26;;;;;;;72.40;28.38;;;;;;;;;;5042053;28;20080;-60
2023/11/01 04:52:52;;;;;;;68.10;29.05;;;;;;;;;;5043695;28;20049;-60
2023/11/01 04:55:19;;;;;;;67.07;29.38;;;;;;;;;;5027330;28;20103;-60
2023/11/01 04:57:45;;;;;;;70.32;31.20;;;;;;;;;;5045718;28;21675;-60
2023/11/01 05:00:11;;;;;;;76.30;31.85;;;;;;;;;;5056963;28;20436;-60
2023/11/01 05:02:40;;;;;;;78.90;32.30;;;;;;;;;;5049341;28;20045;-60
2023/11/01 05:05:08;;;;;;;75.55;31.52;;;;;;;;;;5064822;28;20111;-60
2023/11/01 05:07:34;;;;;;;85.45;33.95;;;;;;;;;;5053999;28;20045;-60
2023/11/01 05:10:01;;;;;;;72.38;31.65;;;;;;;;;;5064324;28;20098;-60
2023/11/01 05:12:27;;;;;;;77.50;33.15;;;;;;;;;;5046218;28;20132;-60
2023/11/01 05:14:53;;;;;;;69.80;29.98;;;;;;;;;;5047627;28;20061;-60
2023/11/01 05:17:19;;;;;;;69.38;30.60;;;;;;;;;;5044221;28;20048;-60
2023/11/01 05:19:46;;;;;;;72.18;32.42;;;;;;;;;;5042783;28;20048;-60
2023/11/01 05:22:12;;;;;;;75.38;32.53;;;;;;;;;;5046493;28;20155;-60
2023/11/01 05:24:38;;;;;;;60.85;29.50;;;;;;;;;;5044436;28;20040;-60
2023/11/01 05:27:07;;;;;;;68.18;29.95;;;;;;;;;;5050171;28;20048;-60
2023/11/01 05:29:33;;;;;;;62.10;28.40;;;;;;;;;;5064011;28;20048;-60
2023/11/01 05:31:59;;;;;;;64.93;28.35;;;;;;;;;;5051485;28;20496;-60
2023/11/01 05:34:25;;;;;;;68.32;30.17;;;;;;;;;;5051847;28;21820;-60
2023/11/01 05:36:51;;;;;;;68.03;29.70;;;;;;;;;;5043376;28;20174;-60
2023/11/01 05:39:20;;;;;;;60.58;27.88;;;;;;;;;;5045844;28;20050;-60
2023/11/01 05:41:51;;;;;;;60.05;27.75;;;;;;;;;;5044537;28;21345;-60
2023/11/01 05:44:20;;;;;;;60.55;27.48;;;;;;;;;;5043688;28;20044;-60
2023/11/01 05:46:48;;;;;;;58.92;28.05;;;;;;;;;;5060290;28;20041;-60
2023/11/01 05:49:14;;;;;;;71.35;29.13;;;;;;;;;;5045424;28;20102;-60
2023/11/01 05:51:41;;;;;;;71.80;27.52;;;;;;;;;;5043215;28;20052;-60
2023/11/01 05:54:07;;;;;;;60.97;27.35;;;;;;;;;;5048869;28;20065;-60
2023/11/01 05:56:36;;;;;;;65.63;29.02;;;;;;;;;;5056409;28;20438;-60
2023/11/01 05:59:03;;;;;;;70.25;28.13;;;;;;;;;;5053332;28;20086;-60
2023/11/01 06:01:29;;;;;;;66.20;26.30;;;;;;;;;;5049966;28;20045;-60
2023/11/01 06:03:57;;;;;;;60.60;26.23;;;;;;;;;;5053834;28;20067;-60
2023/11/01 06:06:24;;;;;;;56.88;26.08;;;;;;;;;;5053636;28;20048;-60
2023/11/01 06:08:51;;;;;;;70.07;28.27;;;;;;;;;;5043522;28;20389;-60
2023/11/01 06:11:17;;;;;;;61.13;28.38;;;;;;;;;;5050154;28;20499;-60
2023/11/01 06:13:43;;;;;;;61.33;27.35;;;;;;;;;;5052195;28;20098;-60
2023/11/01 06:16:10;;;;;;;54.80;26.50;;;;;;;;;;5051032;28;20052;-60
2023/11/01 06:18:36;;;;;;;64.70;28.58;;;;;;;;;;5051117;28;20037;-60
2023/11/01 06:21:04;;;;;;;60.88;25.85;;;;;;;;;;5049390;28;20087;-60
2023/11/01 06:23:30;;;;;;;64.03;24.95;;;;;;;;;;5048040;28;20048;-60
2023/11/01 06:25:58;;;;;;;52.53;23.80;;;;;;;;;;5015406;28;20041;-60
2023/11/01 06:28:26;;;;;;;56.13;24.27;;;;;;;;;;5049757;28;20052;-60
2023/11/01 06:30:52;;;;;;;64.50;24.52;;;;;;;;;;5043853;28;20551;-60
2023/11/01 06:33:19;;;;;;;57.00;24.25;;;;;;;;;;5045149;28;20045;-60
2023/11/01 06:35:46;;;;;;;51.22;24.40;;;;;;;;;;5048701;28;20504;-60
2023/11/01 06:38:12;;;;;;;50.00;23.85;;;;;;;;;;5051431;28;20374;-60
2023/11/01 06:40:38;;;;;;;50.72;22.60;;;;;;;;;;5041942;28;20048;-60
2023/11/01 06:43:04;;;;;;;45.30;22.27;;;;;;;;;;5049681;28;20123;-60
2023/11/01 06:45:31;;;;;;;47.55;22.90;;;;;;;;;;5049480;28;20044;-60
2023/11/01 06:47:57;;;;;;;49.00;23.08;;;;;;;;;;5050759;28;20052;-60
2023/11/01 06:50:23;;;;;;;46.47;22.25;;;;;;;;;;5048859;28;20052;-60
2023/11/01 06:52:49;;;;;;;43.63;22.50;;;;;;;;;;5051262;28;20067;-60
2023/11/01 06:55:16;;;;;;;44.90;22.33;;;;;;;;;;5044927;28;20462;-60
2023/11/01 06:57:42;;;;;;;46.75;21.85;;;;;;;;;;5053175;28;20044;-60
2023/11/01 07:00:08;;;;;;;47.88;21.35;;;;;;;;;;5071430;28;20056;-60
2023/11/01 07:02:35;;;;;;;45.58;20.98;;;;;;;;;;5071179;28;20044;-60
2023/11/01 07:05:04;;;;;;;39.72;19.63;;;;;;;;;;5048410;28;20060;-60
2023/11/01 07:07:33;;;;;;;43.13;19.42;;;;;;;;;;5049474;28;20519;-60
2023/11/01 07:10:00;;;;;;;41.78;19.25;;;;;;;;;;5055070;28;20036;-60
2023/11/01 07:12:26;;;;;;;48.15;20.20;;;;;;;;;;5062503;28;20054;-60
2023/11/01 07:14:53;;;;;;;40.47;19.15;;;;;;;;;;5054095;28;20488;-60
2023/11/01 07:17:19;;;;;;;34.22;18.80;;;;;;;;;;5062851;28;20032;-59
2023/11/01 07:19:45;;;;;;;36.42;17.75;;;;;;;;;;5066419;28;20044;-60
2023/11/01 07:22:11;;;;;;;32.78;18.10;;;;;;;;;;5070709;28;20056;-59
2023/11/01 07:24:37;;;;;;;38.95;17.35;;;;;;;;;;5069999;28;20041;-60
2023/11/01 07:27:03;;;;;;;40.80;17.67;;;;;;;;;;5070041;28;20435;-60
2023/11/01 07:29:30;;;;;;;38.97;17.10;;;;;;;;;;5058821;28;20136;-59
2023/11/01 07:31:56;;;;;;;30.02;16.35;;;;;;;;;;5066245;28;20044;-59
2023/11/01 07:34:22;;;;;;;35.03;17.65;;;;;;;;;;5070714;28;20078;-59
2023/11/01 07:36:48;;;;;;;36.50;16.45;;;;;;;;;;5066372;28;20059;-59
2023/11/01 07:39:14;;;;;;;29.17;16.42;;;;;;;;;;5069833;28;20055;-60
2023/11/01 07:41:40;;;;;;;25.67;15.57;;;;;;;;;;5063226;28;20396;-59
2023/11/01 07:44:07;;;;;;;28.38;15.70;;;;;;;;;;5061163;28;20096;-60
2023/11/01 07:46:33;;;;;;;26.52;14.65;;;;;;;;;;5048378;28;20044;-60
2023/11/01 07:48:59;;;;;;;28.85;14.82;;;;;;;;;;5049957;28;20088;-60
2023/11/01 07:51:25;;;;;;;26.48;13.85;;;;;;;;;;5049134;28;20048;-60
2023/11/01 07:53:52;;;;;;;26.08;13.73;;;;;;;;;;5048519;28;20183;-60
2023/11/01 07:56:19;;;;;;;30.95;14.80;;;;;;;;;;5050289;28;20082;-60
2023/11/01 07:58:45;;;;;;;27.23;13.23;;;;;;;;;;5059567;28;20424;-60
2023/11/01 08:01:12;;;;;;;28.00;13.77;;;;;;;;;;5057033;28;20467;-65
2023/11/01 08:03:38;;;;;;;25.60;13.38;;;;;;;;;;5056861;28;20045;-60
2023/11/01 08:06:05;;;;;;;20.25;12.52;;;;;;;;;;5070611;28;20044;-64
2023/11/01 08:08:31;;;;;;;27.88;14.70;;;;;;;;;;5048022;28;20495;-65
2023/11/01 08:10:57;;;;;;;25.85;12.93;;;;;;;;;;5040567;28;20045;-60
2023/11/01 08:13:23;;;;;;;23.00;12.88;;;;;;;;;;5070497;28;20120;-65
2023/11/01 08:15:49;;;;;;;25.00;12.80;;;;;;;;;;5049839;28;20080;-65
2023/11/01 08:18:16;;;;;;;21.67;11.82;;;;;;;;;;5041500;28;20047;-63
2023/11/01 08:20:42;;;;;;;21.88;10.93;;;;;;;;;;5051834;28;20064;-63
2023/11/01 08:23:08;;;;;;;19.90;10.32;;;;;;;;;;5046287;28;20037;-60
2023/11/01 08:25:35;;;;;;;18.90;9.70;;;;;;;;;;5044686;28;20465;-60
2023/11/01 08:28:01;;;;;;;16.77;9.18;;;;;;;;;;5050811;28;20124;-60
2023/11/01 08:30:28;;;;;;;21.00;9.00;;;;;;;;;;5058453;28;20086;-60
2023/11/01 08:32:54;;;;;;;18.30;9.38;;;;;;;;;;5055435;28;20393;-60
2023/11/01 08:35:20;;;;;;;16.52;9.80;;;;;;;;;;5050720;28;20123;-60
2023/11/01 08:37:46;;;;;;;17.98;8.50;;;;;;;;;;5064880;28;20044;-60
2023/11/01 08:40:13;;;;;;;14.70;8.93;;;;;;;;;;5064656;28;20118;-60
2023/11/01 08:42:39;;;;;;;15.52;8.48;;;;;;;;;;5072945;28;20040;-60
2023/11/01 08:45:06;;;;;;;15.60;8.35;;;;;;;;;;5074060;28;20345;-60
2023/11/01 08:47:38;;;;;;;12.98;7.53;;;;;;;;;;5073680;28;20115;-60
2023/11/01 08:50:05;;;;;;;14.15;8.27;;;;;;;;;;5066378;28;20052;-60
2023/11/01 08:52:32;;;;;;;13.23;8.05;;;;;;;;;;5068177;28;20041;-60
2023/11/01 08:55:01;;;;;;;13.82;7.38;;;;;;;;;;5061697;28;20079;-60
2023/11/01 08:57:28;;;;;;;14.73;8.38;;;;;;;;;;5057374;28;20084;-60
2023/11/01 08:59:57;;;;;;;16.95;9.02;;;;;;;;;;5073351;28;20090;-60
2023/11/01 09:02:25;;;;;;;15.35;8.73;;;;;;;;;;5059498;28;20045;-60
2023/11/01 09:04:53;;;;;;;18.30;9.25;;;;;;;;;;5057818;28;20423;-60
2023/11/01 09:07:19;;;;;;;21.45;9.52;;;;;;;;;;5073289;28;20127;-60
2023/11/01 09:09:45;;;;;;;17.13;10.48;;;;;;;;;;5064800;28;20137;-60
2023/11/01 09:12:11;;;;;;;22.20;10.52;;;;;;;;;;5072625;28;20044;-60
2023/11/01 09:14:38;;;;;;;23.90;10.43;;;;;;;;;;5065602;28;20048;-61
2023/11/01 09:17:04;;;;;;;18.73;11.00;;;;;;;;;;5063791;28;20495;-61
2023/11/01 09:19:30;;;;;;;19.92;11.40;;;;;;;;;;5065648;28;20119;-62
2023/11/01 09:21:56;;;;;;;19.90;11.63;;;;;;;;;;5069431;28;20365;-61
2023/11/01 09:24:23;;;;;;;22.70;11.98;;;;;;;;;;5053255;28;20123;-61
2023/11/01 09:26:49;;;;;;;24.58;13.50;;;;;;;;;;5069345;28;20055;-66
2023/11/01 09:29:15;;;;;;;22.27;12.07;;;;;;;;;;5063162;28;20056;-61
2023/11/01 09:31:42;;;;;;;20.67;12.80;;;;;;;;;;5053957;28;20909;-62
2023/11/01 09:34:08;;;;;;;29.60;13.95;;;;;;;;;;5044422;28;20044;-61
2023/11/01 09:36:38;;;;;;;32.50;15.82;;;;;;;;;;5072793;28;20118;-61
2023/11/01 09:39:05;;;;;;;27.67;16.08;;;;;;;;;;5063948;28;20045;-61
2023/11/01 09:41:37;;;;;;;35.40;16.65;;;;;;;;;;5072573;28;20499;-61
2023/11/01 09:44:03;;;;;;;32.47;18.77;;;;;;;;;;5041575;28;20067;-61
2023/11/01 09:46:30;;;;;;;37.53;19.42;;;;;;;;;;5061175;28;20045;-61
2023/11/01 09:48:56;;;;;;;36.03;19.60;;;;;;;;;;5062126;28;20408;-61
2023/11/01 09:51:23;;;;;;;42.75;20.77;;;;;;;;;;5072429;28;20048;-61
2023/11/01 09:53:50;;;;;;;37.20;20.23;;;;;;;;;;5067269;28;20052;-61
2023/11/01 09:56:16;;;;;;;46.13;20.80;;;;;;;;;;5056194;28;20045;-61
2023/11/01 09:58:43;;;;;;;40.85;21.50;;;;;;;;;;5062543;28;21288;-61
2023/11/01 10:01:09;;;;;;;39.55;20.63;;;;;;;;;;5045143;28;20048;-61
2023/11/01 10:03:36;;;;;;;40.65;21.33;;;;;;;;;;5072242;28;20048;-61
2023/11/01 10:06:02;;;;;;;42.80;20.83;;;;;;;;;;5072092;28;20143;-61
2023/11/01 10:08:28;;;;;;;44.50;22.25;;;;;;;;;;5071322;28;20040;-61
2023/11/01 10:10:59;;;;;;;32.75;18.83;;;;;;;;;;5072041;28;20055;-61
2023/11/01 10:13:29;;;;;;;35.35;17.90;;;;;;;;;;5053830;28;20036;-61
2023/11/01 10:15:55;;;;;;;40.28;20.15;;;;;;;;;;5066572;28;20044;-61
2023/11/01 10:18:21;;;;;;;37.22;19.40;;;;;;;;;;5070119;28;20492;-61
2023/11/01 10:20:48;;;;;;;35.60;20.15;;;;;;;;;;5071248;28;20048;-61
2023/11/01 10:23:14;;;;;;;39.83;17.08;;;;;;;;;;5071752;28;20094;-62
2023/11/01 10:25:45;;;;;;;35.63;18.77;;;;;;;;;;5071696;28;20507;-61
2023/11/01 10:28:14;;;;;;;30.92;16.60;;;;;;;;;;5054900;28;20120;-61
2023/11/01 10:30:44;;;;;;;30.02;17.13;;;;;;;;;;5057430;28;20072;-61
2023/11/01 10:33:10;;;;;;;28.85;17.00;;;;;;;;;;5066465;28;20464;-65
2023/11/01 10:35:37;;;;;;;35.92;16.35;;;;;;;;;;5069020;28;20452;-62
2023/11/01 10:38:03;;;;;;;32.47;16.98;;;;;;;;;;5071510;28;20070;-61
2023/11/01 10:40:30;;;;;;;37.83;16.58;;;;;;;;;;5070883;28;20029;-61
2023/11/01 10:43:00;;;;;;;27.63;16.25;;;;;;;;;;5057153;28;20037;-61
2023/11/01 10:45:26;;;;;;;31.38;15.02;;;;;;;;;;5037291;28;20365;-61
2023/11/01 10:47:53;;;;;;;26.30;14.18;;;;;;;;;;5071417;28;20036;-61
2023/11/01 10:50:20;;;;;;;28.10;13.93;;;;;;;;;;5054137;28;20132;-61
2023/11/01 10:52:50;;;;;;;22.50;11.52;;;;;;;;;;5066120;28;20044;-61
2023/11/01 10:55:21;;;;;;;26.50;13.05;;;;;;;;;;5068486;28;20076;-61
2023/11/01 10:57:51;;;;;;;28.02;12.35;;;;;;;;;;5054775;28;20047;-61
2023/11/01 11:00:17;;;;;;;22.50;10.02;;;;;;;;;;5048212;28;20171;-61
2023/11/01 11:02:51;;;;;;;17.27;9.85;;;;;;;;;;5050260;28;20405;-61
2023/11/01 11:05:17;;;;;;;;;;;;;;;;;;5058390;28;20131;-61
2023/11/01 11:07:51;;;;;;;23.77;9.65;;;;;;;;;;5071179;28;19956;-61
2023/11/01 11:10:24;;;;;;;19.50;8.68;;;;;;;;;;5058798;28;20036;-61
2023/11/01 11:13:08;;;;;;;16.35;8.40;;;;;;;;;;5054510;28;20092;-61
2023/11/01 11:15:47;;;;;;;20.90;8.77;;;;;;;;;;5045291;28;20147;-61
2023/11/01 11:18:14;;;;;;;23.40;7.20;;;;;;;;;;5060201;28;20033;-61
2023/11/01 11:20:40;;;;;;;19.63;7.20;;;;;;;;;;5066846;28;20101;-61
2023/11/01 11:23:06;;;;;;;19.20;7.80;;;;;;;;;;5063100;28;20048;-61
2023/11/01 11:25:40;;;;;;;23.55;8.38;;;;;;;;;;5058399;28;20084;-61
2023/11/01 11:28:10;;;;;;;30.02;7.65;;;;;;;;;;5062275;28;20099;-62
2023/11/01 11:30:45;;;;;;;16.52;7.43;;;;;;;;;;5057368;28;20123;-61
2023/11/01 11:33:14;;;;;;;16.83;6.60;;;;;;;;;;5070137;28;20049;-61
2023/11/01 11:35:41;;;;;;;20.17;7.07;;;;;;;;;;5059595;28;20121;-61
2023/11/01 11:38:26;;;;;;;20.77;7.40;;;;;;;;;;5047335;28;20032;-61
2023/11/01 11:41:11;;;;;;;19.52;5.68;;;;;;;;;;5046973;28;20131;-61
2023/11/01 11:43:55;;;;;;;14.57;4.97;;;;;;;;;;5058679;28;20051;-61
2023/11/01 11:46:28;;;;;;;17.15;6.75;;;;;;;;;;5052557;28;20488;-61
2023/11/01 11:48:54;;;;;;;15.73;4.95;;;;;;;;;;5047104;28;20098;-61
2023/11/01 11:51:20;;;;;;;15.43;4.70;;;;;;;;;;5057719;28;20560;-61
2023/11/01 11:53:46;;;;;;;12.75;4.20;;;;;;;;;;5066261;28;20043;-61
2023/11/01 11:56:17;;;;;;;21.55;6.15;;;;;;;;;;5065903;28;20056;-61
2023/11/01 11:58:43;;;;;;;10.23;3.85;;;;;;;;;;5059403;28;20461;-61
2023/11/01 12:01:22;;;;;;;14.02;3.97;;;;;;;;;;5046104;28;20075;-61
2023/11/01 12:03:48;;;;;;;18.52;4.85;;;;;;;;;;5046288;28;20118;-61
2023/11/01 12:06:15;;;;;;;15.15;4.38;;;;;;;;;;5049963;28;20055;-61
2023/11/01 12:08:41;;;;;;;17.33;4.97;;;;;;;;;;5045947;28;20049;-61
2023/11/01 12:11:09;;;;;;;16.88;4.45;;;;;;;;;;5058724;28;20040;-61
2023/11/01 12:13:46;;;;;;;18.17;4.60;;;;;;;;;;5050231;28;20093;-61
2023/11/01 12:16:28;;;;;;;16.70;4.43;;;;;;;;;;5037303;28;20049;-61
2023/11/01 12:19:18;;;;;;;18.00;4.60;;;;;;;;;;5056540;28;20060;-61
2023/11/01 12:21:45;;;;;;;14.32;5.80;;;;;;;;;;5061904;28;20052;-61
2023/11/01 12:24:14;;;;;;;13.85;3.70;;;;;;;;;;5061166;28;20036;-61
2023/11/01 12:26:57;;;;;;;13.18;3.75;;;;;;;;;;5052652;28;20048;-61
2023/11/01 12:29:23;;;;;;;16.70;3.35;;;;;;;;;;5069344;28;20118;-61
2023/11/01 12:32:08;;;;;;;15.93;3.75;;;;;;;;;;5062717;28;20045;-61
2023/11/01 12:34:35;;;;;;;12.55;3.47;;;;;;;;;;5065330;28;20575;-61
2023/11/01 12:37:01;;;;;;;13.68;2.97;;;;;;;;;;5053989;28;20504;-61
2023/11/01 12:39:27;;;;;;;25.13;8.35;;;;;;;;;;5061538;28;20044;-61
2023/11/01 12:41:53;;;;;;;14.18;3.85;;;;;;;;;;5044307;28;20091;-61
2023/11/01 12:44:23;;;;;;;10.63;3.17;;;;;;;;;;5057594;28;20052;-61
2023/11/01 12:46:49;;;;;;;13.85;3.63;;;;;;;;;;5050639;28;20139;-61
2023/11/01 12:49:15;;;;;;;14.75;3.72;;;;;;;;;;5054129;28;20049;-61
2023/11/01 12:51:42;;;;;;;17.30;4.80;;;;;;;;;;5053495;28;20134;-62
2023/11/01 12:54:08;;;;;;;16.17;3.33;;;;;;;;;;5057667;28;20040;-61
2023/11/01 12:56:34;;;;;;;11.90;3.10;;;;;;;;;;5055621;28;20052;-61
2023/11/01 12:59:00;;;;;;;11.80;3.42;;;;;;;;;;5060469;28;20098;-61
2023/11/01 13:01:27;;;;;;;15.73;3.95;;;;;;;;;;5066387;28;20508;-61
2023/11/01 13:03:54;;;;;;;11.95;3.42;;;;;;;;;;5045728;28;20045;-61
2023/11/01 13:06:20;;;;;;;14.45;4.22;;;;;;;;;;5058045;28;20044;-61
2023/11/01 13:08:46;;;;;;;10.05;3.08;;;;;;;;;;5068149;28;20211;-61
2023/11/01 13:11:12;;;;;;;12.15;3.25;;;;;;;;;;5055701;28;20102;-61
2023/11/01 13:13:39;;;;;;;11.05;3.25;;;;;;;;;;5050562;28;20090;-61
2023/11/01 13:16:05;;;;;;;13.25;3.17;;;;;;;;;;5050073;28;20049;-61
2023/11/01 13:18:31;;;;;;;13.90;4.10;;;;;;;;;;5049512;28;20036;-61
2023/11/01 13:20:57;;;;;;;15.10;3.85;;;;;;;;;;5064578;28;20127;-61
2023/11/01 13:23:23;;;;;;;15.48;3.60;;;;;;;;;;5064241;28;20412;-61
2023/11/01 13:25:50;;;;;;;15.25;3.08;;;;;;;;;;5072414;28;20048;-61
2023/11/01 13:28:19;;;;;;;12.00;2.55;;;;;;;;;;5056234;28;20056;-61
2023/11/01 13:30:46;;;;;;;15.45;3.78;;;;;;;;;;5055419;28;20060;-61
2023/11/01 13:33:12;;;;;;;15.60;2.60;;;;;;;;;;5065580;28;20488;-61
2023/11/01 13:35:38;;;;;;;10.13;2.13;;;;;;;;;;5053456;28;20441;-61
2023/11/01 13:38:04;;;;;;;10.48;2.53;;;;;;;;;;5063786;28;20041;-62
2023/11/01 13:40:30;;;;;;;8.05;2.40;;;;;;;;;;5057201;28;20424;-61
2023/11/01 13:42:56;;;;;;;8.43;2.45;;;;;;;;;;5054760;28;20052;-60
2023/11/01 13:45:23;;;;;;;13.57;2.80;;;;;;;;;;5057850;28;20070;-60
2023/11/01 13:47:49;;;;;;;12.88;2.78;;;;;;;;;;5061539;28;20154;-60
2023/11/01 13:50:15;;;;;;;9.40;2.30;;;;;;;;;;5047267;28;20382;-60
2023/11/01 13:52:41;;;;;;;12.07;2.55;;;;;;;;;;5059072;28;20423;-60
2023/11/01 13:55:09;;;;;;;8.98;2.20;;;;;;;;;;5054641;28;20041;-60
2023/11/01 13:57:35;;;;;;;14.60;2.30;;;;;;;;;;5051241;28;20120;-60
2023/11/01 14:00:02;;;;;;;8.93;3.55;;;;;;;;;;5041745;28;20033;-60
2023/11/01 14:02:31;;;;;;;9.80;1.90;;;;;;;;;;5052626;28;20427;-60
2023/11/01 14:04:57;;;;;;;12.73;2.40;;;;;;;;;;5056060;28;20083;-60
2023/11/01 14:07:23;;;;;;;14.38;2.22;;;;;;;;;;5058287;28;20048;-60
2023/11/01 14:09:51;;;;;;;16.70;2.30;;;;;;;;;;5063641;28;20080;-60
2023/11/01 14:12:17;;;;;;;9.80;1.70;;;;;;;;;;5058737;28;20382;-60
2023/11/01 14:14:44;;;;;;;10.88;2.30;;;;;;;;;;5049390;28;20388;-60
2023/11/01 14:17:11;;;;;;;7.82;2.10;;;;;;;;;;5058010;28;20127;-60
2023/11/01 14:19:37;;;;;;;10.02;2.20;;;;;;;;;;5042042;28;20038;-60